sensor_id;sensor_type;location;lat;lon;timestamp;pressure;altitude;pressure_sealevel;temperature;humidity
54262;BME280;40174;52.364;6.452;2023-02-26T00:00:06;101620.53;;;0.32;100.00
54262;BME280;40174;52.364;6.452;2023-02-26T00:02:39;101623.13;;;0.32;100.00
54262;BME280;40174;52.364;6.452;2023-02-26T00:05:06;101618.78;;;0.32;100.00
54262;BME280;40174;52.364;6.452;2023-02-26T00:07:33;101624.06;;;0.29;100.00
54262;BME280;40174;52.364;6.452;2023-02-26T00:10:00;101624.06;;;0.29;100.00
54262;BME280;40174;52.364;6.452;2023-02-26T00:12:27;101625.84;;;0.27;100.00
54262;BME280;40174;52.364;6.452;2023-02-26T00:14:54;101629.34;;;0.25;100.00
54262;BME280;40174;52.364;6.452;2023-02-26T00:17:36;101626.00;;;0.21;100.00
54262;BME280;40174;52.364;6.452;2023-02-26T00:20:08;101631.22;;;0.19;100.00
54262;BME280;40174;52.364;6.452;2023-02-26T00:22:36;101627.78;;;0.19;100.00
54262;BME280;40174;52.364;6.452;2023-02-26T00:25:03;101636.50;;;0.16;100.00
54262;BME280;40174;52.364;6.452;2023-02-26T00:27:30;101646.00;;;0.17;100.00
54262;BME280;40174;52.364;6.452;2023-02-26T00:29:57;101642.66;;;0.12;100.00
54262;BME280;40174;52.364;6.452;2023-02-26T00:32:24;101641.03;;;0.08;100.00
54262;BME280;40174;52.364;6.452;2023-02-26T00:34:53;101648.06;;;0.05;100.00
54262;BME280;40174;52.364;6.452;2023-02-26T00:37:27;101642.03;;;0.03;100.00
54262;BME280;40174;52.364;6.452;2023-02-26T00:40:05;101642.91;;;0.02;100.00
54262;BME280;40174;52.364;6.452;2023-02-26T00:42:36;101650.78;;;-0.02;100.00
54262;BME280;40174;52.364;6.452;2023-02-26T00:45:04;101656.88;;;-0.03;100.00
54262;BME280;40174;52.364;6.452;2023-02-26T00:47:39;101656.94;;;-0.06;100.00
54262;BME280;40174;52.364;6.452;2023-02-26T00:50:16;101656.13;;;-0.08;100.00
54262;BME280;40174;52.364;6.452;2023-02-26T00:52:52;101653.66;;;-0.14;100.00
54262;BME280;40174;52.364;6.452;2023-02-26T00:55:23;101659.78;;;-0.16;100.00
54262;BME280;40174;52.364;6.452;2023-02-26T00:57:49;101655.44;;;-0.16;100.00
54262;BME280;40174;52.364;6.452;2023-02-26T01:00:17;101654.66;;;-0.18;100.00
54262;BME280;40174;52.364;6.452;2023-02-26T01:02:44;101653.81;;;-0.20;100.00
54262;BME280;40174;52.364;6.452;2023-02-26T01:05:14;101654.78;;;-0.24;100.00
54262;BME280;40174;52.364;6.452;2023-02-26T01:07:43;101658.28;;;-0.27;100.00
54262;BME280;40174;52.364;6.452;2023-02-26T01:10:12;101661.78;;;-0.29;100.00
54262;BME280;40174;52.364;6.452;2023-02-26T01:12:40;101665.38;;;-0.33;100.00
54262;BME280;40174;52.364;6.452;2023-02-26T01:15:08;101657.63;;;-0.36;100.00
54262;BME280;40174;52.364;6.452;2023-02-26T01:17:43;101666.31;;;-0.37;100.00
54262;BME280;40174;52.364;6.452;2023-02-26T01:20:20;101660.31;;;-0.41;100.00
54262;BME280;40174;52.364;6.452;2023-02-26T01:22:51;101666.44;;;-0.44;100.00
54262;BME280;40174;52.364;6.452;2023-02-26T01:25:23;101669.97;;;-0.48;100.00
54262;BME280;40174;52.364;6.452;2023-02-26T01:27:51;101670.06;;;-0.51;100.00
54262;BME280;40174;52.364;6.452;2023-02-26T01:30:19;101673.59;;;-0.55;100.00
54262;BME280;40174;52.364;6.452;2023-02-26T01:32:49;101674.44;;;-0.54;100.00
54262;BME280;40174;52.364;6.452;2023-02-26T01:35:31;101677.09;;;-0.56;100.00
54262;BME280;40174;52.364;6.452;2023-02-26T01:38:06;101671.91;;;-0.57;100.00
54262;BME280;40174;52.364;6.452;2023-02-26T01:43:54;101677.25;;;-0.65;100.00
54262;BME280;40174;52.364;6.452;2023-02-26T01:46:28;101678.16;;;-0.66;100.00
54262;BME280;40174;52.364;6.452;2023-02-26T01:48:57;101685.97;;;-0.68;100.00
54262;BME280;40174;52.364;6.452;2023-02-26T01:51:45;101683.44;;;-0.71;100.00
54262;BME280;40174;52.364;6.452;2023-02-26T01:54:13;101691.16;;;-0.68;100.00
54262;BME280;40174;52.364;6.452;2023-02-26T01:56:41;101697.28;;;-0.70;100.00
54262;BME280;40174;52.364;6.452;2023-02-26T01:59:12;101699.00;;;-0.69;100.00
54262;BME280;40174;52.364;6.452;2023-02-26T02:01:39;101700.75;;;-0.71;100.00
54262;BME280;40174;52.364;6.452;2023-02-26T02:04:10;101695.66;;;-0.76;100.00
54262;BME280;40174;52.364;6.452;2023-02-26T02:06:38;101699.97;;;-0.75;100.00
54262;BME280;40174;52.364;6.452;2023-02-26T02:09:07;101711.25;;;-0.77;100.00
54262;BME280;40174;52.364;6.452;2023-02-26T02:11:39;101713.00;;;-0.78;100.00
54262;BME280;40174;52.364;6.452;2023-02-26T02:14:11;101716.53;;;-0.82;100.00
54262;BME280;40174;52.364;6.452;2023-02-26T02:16:47;101720.91;;;-0.84;100.00
54262;BME280;40174;52.364;6.452;2023-02-26T02:22:14;101737.41;;;-0.87;100.00
54262;BME280;40174;52.364;6.452;2023-02-26T02:24:59;101737.41;;;-0.88;100.00
54262;BME280;40174;52.364;6.452;2023-02-26T02:27:39;101739.19;;;-0.90;100.00
54262;BME280;40174;52.364;6.452;2023-02-26T02:30:23;101739.16;;;-0.87;100.00
54262;BME280;40174;52.364;6.452;2023-02-26T02:32:59;101740.06;;;-0.90;100.00
54262;BME280;40174;52.364;6.452;2023-02-26T02:43:03;101749.63;;;-0.93;100.00
54262;BME280;40174;52.364;6.452;2023-02-26T02:45:40;101747.91;;;-0.94;100.00
54262;BME280;40174;52.364;6.452;2023-02-26T02:48:14;101752.25;;;-0.95;100.00
54262;BME280;40174;52.364;6.452;2023-02-26T02:50:45;101757.47;;;-0.96;100.00
54262;BME280;40174;52.364;6.452;2023-02-26T02:53:17;101758.34;;;-0.99;100.00
54262;BME280;40174;52.364;6.452;2023-02-26T02:55:49;101754.94;;;-1.01;100.00
54262;BME280;40174;52.364;6.452;2023-02-26T02:58:21;101754.97;;;-1.02;100.00
54262;BME280;40174;52.364;6.452;2023-02-26T03:00:51;101757.59;;;-1.04;100.00
54262;BME280;40174;52.364;6.452;2023-02-26T03:03:25;101765.41;;;-1.06;100.00
54262;BME280;40174;52.364;6.452;2023-02-26T03:05:54;101768.03;;;-1.07;100.00
54262;BME280;40174;52.364;6.452;2023-02-26T03:08:24;101767.22;;;-1.09;100.00
54262;BME280;40174;52.364;6.452;2023-02-26T03:10:52;101770.75;;;-1.15;100.00
54262;BME280;40174;52.364;6.452;2023-02-26T03:13:21;101772.50;;;-1.15;100.00
54262;BME280;40174;52.364;6.452;2023-02-26T03:16:00;101781.16;;;-1.16;100.00
54262;BME280;40174;52.364;6.452;2023-02-26T03:18:45;101789.84;;;-1.19;100.00
54262;BME280;40174;52.364;6.452;2023-02-26T03:21:19;101787.31;;;-1.22;100.00
54262;BME280;40174;52.364;6.452;2023-02-26T03:23:52;101787.31;;;-1.23;100.00
54262;BME280;40174;52.364;6.452;2023-02-26T03:26:23;101788.22;;;-1.26;100.00
54262;BME280;40174;52.364;6.452;2023-02-26T03:28:56;101792.56;;;-1.28;100.00
54262;BME280;40174;52.364;6.452;2023-02-26T03:31:28;101795.22;;;-1.31;100.00
54262;BME280;40174;52.364;6.452;2023-02-26T03:34:02;101803.91;;;-1.34;100.00
54262;BME280;40174;52.364;6.452;2023-02-26T03:36:36;101809.97;;;-1.35;100.00
54262;BME280;40174;52.364;6.452;2023-02-26T03:39:20;101805.69;;;-1.37;100.00
54262;BME280;40174;52.364;6.452;2023-02-26T03:41:53;101804.00;;;-1.38;100.00
54262;BME280;40174;52.364;6.452;2023-02-26T03:44:25;101814.38;;;-1.38;100.00
54262;BME280;40174;52.364;6.452;2023-02-26T03:46:56;101823.91;;;-1.40;100.00
54262;BME280;40174;52.364;6.452;2023-02-26T03:49:29;101822.22;;;-1.43;100.00
54262;BME280;40174;52.364;6.452;2023-02-26T03:51:59;101821.38;;;-1.43;100.00
54262;BME280;40174;52.364;6.452;2023-02-26T03:55:09;101820.47;;;-1.44;100.00
54262;BME280;40174;52.364;6.452;2023-02-26T03:58:03;101825.66;;;-1.44;100.00
54262;BME280;40174;52.364;6.452;2023-02-26T04:00:41;101828.31;;;-1.45;100.00
54262;BME280;40174;52.364;6.452;2023-02-26T04:03:12;101830.03;;;-1.46;100.00
54262;BME280;40174;52.364;6.452;2023-02-26T04:05:45;101842.13;;;-1.47;100.00
54262;BME280;40174;52.364;6.452;2023-02-26T04:08:12;101845.56;;;-1.46;100.00
54262;BME280;40174;52.364;6.452;2023-02-26T04:10:42;101843.88;;;-1.49;100.00
54262;BME280;40174;52.364;6.452;2023-02-26T04:13:09;101852.50;;;-1.47;100.00
54262;BME280;40174;52.364;6.452;2023-02-26T04:15:36;101861.13;;;-1.44;100.00
54262;BME280;40174;52.364;6.452;2023-02-26T04:18:03;101860.28;;;-1.45;100.00
54262;BME280;40174;52.364;6.452;2023-02-26T04:20:30;101864.56;;;-1.42;100.00
54262;BME280;40174;52.364;6.452;2023-02-26T04:22:57;101864.63;;;-1.49;100.00
54262;BME280;40174;52.364;6.452;2023-02-26T04:25:24;101864.63;;;-1.47;100.00
54262;BME280;40174;52.364;6.452;2023-02-26T04:27:51;101868.06;;;-1.48;100.00
54262;BME280;40174;52.364;6.452;2023-02-26T04:30:18;101872.47;;;-1.50;100.00
54262;BME280;40174;52.364;6.452;2023-02-26T04:32:45;101875.91;;;-1.53;100.00
54262;BME280;40174;52.364;6.452;2023-02-26T04:35:14;101881.94;;;-1.51;100.00
54262;BME280;40174;52.364;6.452;2023-02-26T04:37:41;101882.84;;;-1.50;100.00
54262;BME280;40174;52.364;6.452;2023-02-26T04:40:10;101881.09;;;-1.53;100.00
54262;BME280;40174;52.364;6.452;2023-02-26T04:42:37;101884.59;;;-1.54;100.00
54262;BME280;40174;52.364;6.452;2023-02-26T04:45:05;101886.34;;;-1.54;100.00
54262;BME280;40174;52.364;6.452;2023-02-26T04:47:34;101894.97;;;-1.54;100.00
54262;BME280;40174;52.364;6.452;2023-02-26T04:50:02;101894.13;;;-1.57;100.00
54262;BME280;40174;52.364;6.452;2023-02-26T04:52:29;101901.13;;;-1.61;100.00
54262;BME280;40174;52.364;6.452;2023-02-26T04:54:57;101905.41;;;-1.58;100.00
54262;BME280;40174;52.364;6.452;2023-02-26T04:57:25;101909.75;;;-1.60;100.00
54262;BME280;40174;52.364;6.452;2023-02-26T04:59:51;101914.06;;;-1.61;100.00
54262;BME280;40174;52.364;6.452;2023-02-26T05:02:21;101914.97;;;-1.63;100.00
54262;BME280;40174;52.364;6.452;2023-02-26T05:04:50;101927.09;;;-1.65;100.00
54262;BME280;40174;52.364;6.452;2023-02-26T05:07:17;101929.72;;;-1.69;100.00
54262;BME280;40174;52.364;6.452;2023-02-26T05:09:43;101921.97;;;-1.72;100.00
54262;BME280;40174;52.364;6.452;2023-02-26T05:12:11;101934.94;;;-1.72;100.00
54262;BME280;40174;52.364;6.452;2023-02-26T05:14:39;101934.94;;;-1.72;100.00
54262;BME280;40174;52.364;6.452;2023-02-26T05:17:06;101937.59;;;-1.75;100.00
54262;BME280;40174;52.364;6.452;2023-02-26T05:19:33;101943.66;;;-1.79;100.00
54262;BME280;40174;52.364;6.452;2023-02-26T05:21:59;101944.56;;;-1.81;100.00
54262;BME280;40174;52.364;6.452;2023-02-26T05:24:27;101948.00;;;-1.82;100.00
54262;BME280;40174;52.364;6.452;2023-02-26T05:26:54;101952.34;;;-1.81;100.00
54262;BME280;40174;52.364;6.452;2023-02-26T05:29:20;101950.66;;;-1.87;100.00
54262;BME280;40174;52.364;6.452;2023-02-26T05:31:50;101955.00;;;-1.88;100.00
54262;BME280;40174;52.364;6.452;2023-02-26T05:34:17;101960.19;;;-1.91;100.00
54262;BME280;40174;52.364;6.452;2023-02-26T05:36:43;101961.06;;;-1.92;100.00
54262;BME280;40174;52.364;6.452;2023-02-26T05:39:10;101964.56;;;-1.93;100.00
54262;BME280;40174;52.364;6.452;2023-02-26T05:41:36;101970.59;;;-1.95;100.00
54262;BME280;40174;52.364;6.452;2023-02-26T05:44:03;101973.19;;;-1.95;100.00
54262;BME280;40174;52.364;6.452;2023-02-26T05:46:30;101979.25;;;-1.95;100.00
54262;BME280;40174;52.364;6.452;2023-02-26T05:48:58;101987.06;;;-1.99;100.00
54262;BME280;40174;52.364;6.452;2023-02-26T05:51:24;101983.63;;;-2.01;100.00
54262;BME280;40174;52.364;6.452;2023-02-26T05:53:52;101993.16;;;-2.03;100.00
54262;BME280;40174;52.364;6.452;2023-02-26T05:56:19;102008.69;;;-2.03;100.00
54262;BME280;40174;52.364;6.452;2023-02-26T05:58:46;102003.53;;;-2.05;100.00
54262;BME280;40174;52.364;6.452;2023-02-26T06:01:12;102003.53;;;-2.06;100.00
54262;BME280;40174;52.364;6.452;2023-02-26T06:03:39;102002.72;;;-2.10;100.00
54262;BME280;40174;52.364;6.452;2023-02-26T06:06:09;102010.50;;;-2.12;100.00
54262;BME280;40174;52.364;6.452;2023-02-26T06:08:36;102012.22;;;-2.11;100.00
54262;BME280;40174;52.364;6.452;2023-02-26T06:11:04;102018.25;;;-2.12;100.00
54262;BME280;40174;52.364;6.452;2023-02-26T06:13:30;102019.16;;;-2.14;100.00
54262;BME280;40174;52.364;6.452;2023-02-26T06:15:57;102020.91;;;-2.16;100.00
54262;BME280;40174;52.364;6.452;2023-02-26T06:18:23;102026.09;;;-2.18;100.00
54262;BME280;40174;52.364;6.452;2023-02-26T06:20:50;102040.81;;;-2.21;100.00
54262;BME280;40174;52.364;6.452;2023-02-26T06:23:18;102039.97;;;-2.22;100.00
54262;BME280;40174;52.364;6.452;2023-02-26T06:25:45;102040.81;;;-2.24;100.00
54262;BME280;40174;52.364;6.452;2023-02-26T06:28:11;102037.38;;;-2.25;100.00
54262;BME280;40174;52.364;6.452;2023-02-26T06:30:38;102048.59;;;-2.23;100.00
54262;BME280;40174;52.364;6.452;2023-02-26T06:33:05;102048.63;;;-2.26;100.00
54262;BME280;40174;52.364;6.452;2023-02-26T06:35:32;102050.31;;;-2.26;100.00
54262;BME280;40174;52.364;6.452;2023-02-26T06:37:58;102056.34;;;-2.24;100.00
54262;BME280;40174;52.364;6.452;2023-02-26T06:40:26;102058.09;;;-2.25;100.00
54262;BME280;40174;52.364;6.452;2023-02-26T06:42:53;102060.69;;;-2.23;100.00
54262;BME280;40174;52.364;6.452;2023-02-26T06:45:19;102065.00;;;-2.24;100.00
54262;BME280;40174;52.364;6.452;2023-02-26T06:47:46;102071.91;;;-2.23;100.00
54262;BME280;40174;52.364;6.452;2023-02-26T06:50:13;102086.56;;;-2.20;100.00
54262;BME280;40174;52.364;6.452;2023-02-26T06:52:39;102083.97;;;-2.17;100.00
54262;BME280;40174;52.364;6.452;2023-02-26T06:55:07;102090.84;;;-2.18;100.00
54262;BME280;40174;52.364;6.452;2023-02-26T06:57:35;102090.84;;;-2.15;100.00
54262;BME280;40174;52.364;6.452;2023-02-26T07:00:03;102098.56;;;-2.12;100.00
54262;BME280;40174;52.364;6.452;2023-02-26T07:02:30;102103.75;;;-2.10;100.00
54262;BME280;40174;52.364;6.452;2023-02-26T07:04:57;102098.53;;;-2.09;100.00
54262;BME280;40174;52.364;6.452;2023-02-26T07:07:23;102115.78;;;-2.04;100.00
54262;BME280;40174;52.364;6.452;2023-02-26T07:09:50;102114.09;;;-2.04;100.00
54262;BME280;40174;52.364;6.452;2023-02-26T07:12:16;102107.13;;;-2.02;100.00
54262;BME280;40174;52.364;6.452;2023-02-26T07:14:44;102109.72;;;-2.02;100.00
54262;BME280;40174;52.364;6.452;2023-02-26T07:17:11;102119.22;;;-1.99;100.00
54262;BME280;40174;52.364;6.452;2023-02-26T07:19:44;102123.50;;;-1.95;100.00
54262;BME280;40174;52.364;6.452;2023-02-26T07:22:11;102126.09;;;-1.92;100.00
54262;BME280;40174;52.364;6.452;2023-02-26T07:24:38;102134.69;;;-1.89;100.00
54262;BME280;40174;52.364;6.452;2023-02-26T07:27:04;102129.53;;;-1.90;100.00
54262;BME280;40174;52.364;6.452;2023-02-26T07:29:31;102129.50;;;-1.87;100.00
54262;BME280;40174;52.364;6.452;2023-02-26T07:31:59;102132.03;;;-1.84;100.00
54262;BME280;40174;52.364;6.452;2023-02-26T07:34:26;102132.03;;;-1.82;100.00
54262;BME280;40174;52.364;6.452;2023-02-26T07:36:53;102135.44;;;-1.77;100.00
54262;BME280;40174;52.364;6.452;2023-02-26T07:39:19;102136.31;;;-1.75;100.00
54262;BME280;40174;52.364;6.452;2023-02-26T07:41:46;102142.38;;;-1.75;100.00
54262;BME280;40174;52.364;6.452;2023-02-26T07:44:14;102148.38;;;-1.73;100.00
54262;BME280;40174;52.364;6.452;2023-02-26T07:46:40;102152.69;;;-1.70;100.00
54262;BME280;40174;52.364;6.452;2023-02-26T07:49:08;102137.16;;;-1.70;100.00
54262;BME280;40174;52.364;6.452;2023-02-26T07:51:35;102149.22;;;-1.69;100.00
54262;BME280;40174;52.364;6.452;2023-02-26T07:54:02;102149.22;;;-1.68;100.00
54262;BME280;40174;52.364;6.452;2023-02-26T07:56:29;102163.84;;;-1.62;100.00
54262;BME280;40174;52.364;6.452;2023-02-26T07:58:56;102161.22;;;-1.57;100.00
54262;BME280;40174;52.364;6.452;2023-02-26T08:01:22;102159.50;;;-1.57;100.00
54262;BME280;40174;52.364;6.452;2023-02-26T08:03:49;102172.44;;;-1.54;100.00
54262;BME280;40174;52.364;6.452;2023-02-26T08:06:17;102168.91;;;-1.47;100.00
54262;BME280;40174;52.364;6.452;2023-02-26T08:08:43;102173.19;;;-1.44;100.00
54262;BME280;40174;52.364;6.452;2023-02-26T08:11:10;102168.84;;;-1.39;100.00
54262;BME280;40174;52.364;6.452;2023-02-26T08:13:36;102178.34;;;-1.36;100.00
54262;BME280;40174;52.364;6.452;2023-02-26T08:16:03;102180.88;;;-1.32;100.00
54262;BME280;40174;52.364;6.452;2023-02-26T08:18:30;102184.28;;;-1.28;100.00
54262;BME280;40174;52.364;6.452;2023-02-26T08:20:56;102190.31;;;-1.23;100.00
54262;BME280;40174;52.364;6.452;2023-02-26T08:23:24;102198.94;;;-1.21;100.00
54262;BME280;40174;52.364;6.452;2023-02-26T08:25:59;102197.19;;;-1.19;100.00
54262;BME280;40174;52.364;6.452;2023-02-26T08:28:25;102204.06;;;-1.12;100.00
54262;BME280;40174;52.364;6.452;2023-02-26T08:30:52;102204.84;;;-1.07;100.00
54262;BME280;40174;52.364;6.452;2023-02-26T08:33:19;102202.22;;;-1.02;100.00
54262;BME280;40174;52.364;6.452;2023-02-26T08:35:45;102205.59;;;-0.94;100.00
54262;BME280;40174;52.364;6.452;2023-02-26T08:38:12;102210.69;;;-0.86;100.00
54262;BME280;40174;52.364;6.452;2023-02-26T08:40:40;102213.25;;;-0.81;100.00
54262;BME280;40174;52.364;6.452;2023-02-26T08:43:07;102211.44;;;-0.73;100.00
54262;BME280;40174;52.364;6.452;2023-02-26T08:45:33;102220.03;;;-0.67;100.00
54262;BME280;40174;52.364;6.452;2023-02-26T08:48:00;102221.66;;;-0.59;100.00
54262;BME280;40174;52.364;6.452;2023-02-26T08:50:27;102222.38;;;-0.47;100.00
54262;BME280;40174;52.364;6.452;2023-02-26T08:52:53;102224.88;;;-0.37;100.00
54262;BME280;40174;52.364;6.452;2023-02-26T08:55:20;102240.41;;;-0.34;100.00
54262;BME280;40174;52.364;6.452;2023-02-26T08:57:48;102239.44;;;-0.27;100.00
54262;BME280;40174;52.364;6.452;2023-02-26T09:00:15;102239.44;;;-0.27;100.00
54262;BME280;40174;52.364;6.452;2023-02-26T09:02:45;102255.75;;;-0.16;100.00
54262;BME280;40174;52.364;6.452;2023-02-26T09:05:12;102258.25;;;-0.07;99.36
54262;BME280;40174;52.364;6.452;2023-02-26T09:07:39;102261.59;;;0.02;99.35
54262;BME280;40174;52.364;6.452;2023-02-26T09:10:07;102263.28;;;0.04;99.87
54262;BME280;40174;52.364;6.452;2023-02-26T09:12:34;102264.13;;;0.09;98.15
54262;BME280;40174;52.364;6.452;2023-02-26T09:15:03;102267.38;;;0.24;97.21
54262;BME280;40174;52.364;6.452;2023-02-26T09:17:30;102280.31;;;0.27;97.46
54262;BME280;40174;52.364;6.452;2023-02-26T09:19:57;102279.34;;;0.35;97.28
54262;BME280;40174;52.364;6.452;2023-02-26T09:22:24;102274.88;;;0.44;96.81
54262;BME280;40174;52.364;6.452;2023-02-26T09:24:50;102281.78;;;0.46;96.46
54262;BME280;40174;52.364;6.452;2023-02-26T09:27:17;102288.59;;;0.53;96.87
54262;BME280;40174;52.364;6.452;2023-02-26T09:29:44;102286.75;;;0.61;94.99
54262;BME280;40174;52.364;6.452;2023-02-26T09:32:12;102292.44;;;0.85;92.23
54262;BME280;40174;52.364;6.452;2023-02-26T09:34:38;102293.25;;;0.90;90.65
54262;BME280;40174;52.364;6.452;2023-02-26T09:37:06;102287.97;;;0.93;91.68
54262;BME280;40174;52.364;6.452;2023-02-26T09:39:34;102293.09;;;0.98;91.96
54262;BME280;40174;52.364;6.452;2023-02-26T09:42:09;102300.81;;;1.06;92.39
54262;BME280;40174;52.364;6.452;2023-02-26T09:44:39;102295.44;;;1.15;88.38
54262;BME280;40174;52.364;6.452;2023-02-26T09:47:12;102295.13;;;1.32;86.99
54262;BME280;40174;52.364;6.452;2023-02-26T09:49:49;102300.22;;;1.38;86.69
54262;BME280;40174;52.364;6.452;2023-02-26T09:52:21;102298.16;;;1.55;86.04
54262;BME280;40174;52.364;6.452;2023-02-26T09:54:51;102310.28;;;1.58;86.50
54262;BME280;40174;52.364;6.452;2023-02-26T09:57:25;102310.84;;;1.72;83.29
54262;BME280;40174;52.364;6.452;2023-02-26T09:59:53;102312.22;;;1.90;81.44
54262;BME280;40174;52.364;6.452;2023-02-26T10:02:25;102315.66;;;1.94;80.79
54262;BME280;40174;52.364;6.452;2023-02-26T10:05:03;102319.13;;;1.93;81.54
54262;BME280;40174;52.364;6.452;2023-02-26T10:07:37;102324.25;;;1.97;80.50
54262;BME280;40174;52.364;6.452;2023-02-26T10:10:16;102323.34;;;2.00;80.94
54262;BME280;40174;52.364;6.452;2023-02-26T10:12:46;102327.44;;;2.13;78.89
54262;BME280;40174;52.364;6.452;2023-02-26T10:15:16;102322.94;;;2.20;80.49
54262;BME280;40174;52.364;6.452;2023-02-26T10:17:54;102320.06;;;2.31;80.47
54262;BME280;40174;52.364;6.452;2023-02-26T10:20:27;102326.00;;;2.37;79.62
54262;BME280;40174;52.364;6.452;2023-02-26T10:22:58;102331.09;;;2.43;80.80
54262;BME280;40174;52.364;6.452;2023-02-26T10:25:32;102328.78;;;2.68;79.34
54262;BME280;40174;52.364;6.452;2023-02-26T10:28:07;102329.69;;;2.67;80.41
54262;BME280;40174;52.364;6.452;2023-02-26T10:30:43;102341.81;;;2.70;80.17
54262;BME280;40174;52.364;6.452;2023-02-26T10:33:18;102338.97;;;2.81;79.37
54262;BME280;40174;52.364;6.452;2023-02-26T10:35:51;102335.22;;;2.91;79.36
54262;BME280;40174;52.364;6.452;2023-02-26T10:38:23;102337.66;;;2.99;77.51
54262;BME280;40174;52.364;6.452;2023-02-26T10:40:54;102351.38;;;3.07;78.98
54262;BME280;40174;52.364;6.452;2023-02-26T10:43:26;102345.44;;;3.00;77.31
54262;BME280;40174;52.364;6.452;2023-02-26T10:46:06;102355.88;;;3.00;76.22
54262;BME280;40174;52.364;6.452;2023-02-26T10:48:47;102356.09;;;2.92;77.18
54262;BME280;40174;52.364;6.452;2023-02-26T10:51:17;102354.69;;;2.78;77.51
54262;BME280;40174;52.364;6.452;2023-02-26T10:53:46;102360.84;;;2.75;76.33
54262;BME280;40174;52.364;6.452;2023-02-26T10:56:16;102365.34;;;2.68;77.53
54262;BME280;40174;52.364;6.452;2023-02-26T10:58:45;102361.63;;;2.79;78.21
54262;BME280;40174;52.364;6.452;2023-02-26T11:01:17;102365.78;;;2.87;77.74
54262;BME280;40174;52.364;6.452;2023-02-26T11:03:46;102361.22;;;2.96;76.58
54262;BME280;40174;52.364;6.452;2023-02-26T11:06:18;102362.50;;;3.15;74.79
54262;BME280;40174;52.364;6.452;2023-02-26T11:08:48;102370.56;;;3.40;73.16
54262;BME280;40174;52.364;6.452;2023-02-26T11:11:34;102368.50;;;3.53;72.61
54262;BME280;40174;52.364;6.452;2023-02-26T11:14:01;102371.47;;;3.72;70.64
54262;BME280;40174;52.364;6.452;2023-02-26T11:16:28;102367.03;;;3.75;69.15
54262;BME280;40174;52.364;6.452;2023-02-26T11:18:58;102368.53;;;3.84;69.84
54262;BME280;40174;52.364;6.452;2023-02-26T11:21:27;102372.00;;;3.85;68.30
54262;BME280;40174;52.364;6.452;2023-02-26T11:23:57;102367.88;;;3.76;69.53
54262;BME280;40174;52.364;6.452;2023-02-26T11:26:26;102371.00;;;3.90;67.25
54262;BME280;40174;52.364;6.452;2023-02-26T11:28:54;102365.81;;;3.87;68.84
54262;BME280;40174;52.364;6.452;2023-02-26T11:31:22;102374.38;;;3.94;67.72
54262;BME280;40174;52.364;6.452;2023-02-26T11:33:51;102372.31;;;4.05;68.60
54262;BME280;40174;52.364;6.452;2023-02-26T11:36:22;102372.13;;;4.11;66.16
54262;BME280;40174;52.364;6.452;2023-02-26T11:38:52;102376.81;;;4.31;68.08
54262;BME280;40174;52.364;6.452;2023-02-26T11:41:21;102375.69;;;4.40;66.65
54262;BME280;40174;52.364;6.452;2023-02-26T11:44:00;102369.88;;;4.58;66.71
54262;BME280;40174;52.364;6.452;2023-02-26T11:46:28;102377.47;;;4.66;65.69
54262;BME280;40174;52.364;6.452;2023-02-26T11:48:57;102370.09;;;4.79;65.26
54262;BME280;40174;52.364;6.452;2023-02-26T11:51:28;102369.88;;;4.87;63.95
54262;BME280;40174;52.364;6.452;2023-02-26T11:53:56;102374.09;;;4.91;63.12
54262;BME280;40174;52.364;6.452;2023-02-26T11:56:29;102378.16;;;5.01;64.14
54262;BME280;40174;52.364;6.452;2023-02-26T11:59:01;102376.16;;;5.09;63.96
54262;BME280;40174;52.364;6.452;2023-02-26T12:01:28;102370.13;;;5.06;65.46
54262;BME280;40174;52.364;6.452;2023-02-26T12:03:58;102365.19;;;5.23;65.09
54262;BME280;40174;52.364;6.452;2023-02-26T12:06:25;102372.59;;;5.37;65.54
54262;BME280;40174;52.364;6.452;2023-02-26T12:08:53;102367.06;;;5.45;64.44
54262;BME280;40174;52.364;6.452;2023-02-26T12:11:42;102360.50;;;5.58;63.45
54262;BME280;40174;52.364;6.452;2023-02-26T12:14:28;102365.50;;;5.66;64.07
54262;BME280;40174;52.364;6.452;2023-02-26T12:17:05;102370.03;;;5.86;65.03
54262;BME280;40174;52.364;6.452;2023-02-26T12:19:40;102363.56;;;5.96;64.39
54262;BME280;40174;52.364;6.452;2023-02-26T12:22:20;102369.56;;;5.99;61.84
54262;BME280;40174;52.364;6.452;2023-02-26T12:25:21;102363.97;;;6.09;63.59
54262;BME280;40174;52.364;6.452;2023-02-26T12:28:02;102361.63;;;6.24;61.91
54262;BME280;40174;52.364;6.452;2023-02-26T12:30:51;102358.59;;;6.35;62.29
54262;BME280;40174;52.364;6.452;2023-02-26T12:33:32;102358.88;;;6.51;61.74
54262;BME280;40174;52.364;6.452;2023-02-26T12:36:13;102361.09;;;6.62;60.51
54262;BME280;40174;52.364;6.452;2023-02-26T12:38:50;102362.91;;;6.60;59.92
54262;BME280;40174;52.364;6.452;2023-02-26T12:41:34;102366.19;;;6.65;59.90
54262;BME280;40174;52.364;6.452;2023-02-26T12:44:16;102362.16;;;6.78;57.78
54262;BME280;40174;52.364;6.452;2023-02-26T12:46:57;102367.25;;;6.83;58.08
54262;BME280;40174;52.364;6.452;2023-02-26T12:49:40;102372.22;;;6.91;57.40
54262;BME280;40174;52.364;6.452;2023-02-26T12:52:21;102367.38;;;7.02;56.28
54262;BME280;40174;52.364;6.452;2023-02-26T12:55:02;102362.78;;;7.07;55.21
54262;BME280;40174;52.364;6.452;2023-02-26T12:57:49;102368.38;;;7.20;54.43
54262;BME280;40174;52.364;6.452;2023-02-26T13:00:37;102366.28;;;7.28;54.14
54262;BME280;40174;52.364;6.452;2023-02-26T13:03:22;102373.13;;;7.32;55.53
54262;BME280;40174;52.364;6.452;2023-02-26T13:06:18;102372.53;;;7.46;55.69
54262;BME280;40174;52.364;6.452;2023-02-26T13:08:53;102375.75;;;7.53;54.91
54262;BME280;40174;52.364;6.452;2023-02-26T13:11:34;102377.88;;;7.65;54.22
54262;BME280;40174;52.364;6.452;2023-02-26T13:14:20;102376.63;;;7.74;55.09
54262;BME280;40174;52.364;6.452;2023-02-26T13:16:53;102359.94;;;7.73;55.52
54262;BME280;40174;52.364;6.452;2023-02-26T13:19:29;102370.06;;;7.82;54.32